createdAt,value
2023-03-29T00:02:30.721Z,47.92
2023-03-29T00:04:58.422Z,48.19
2023-03-29T00:07:26.629Z,47.94
2023-03-29T00:09:53.761Z,48.23
2023-03-29T00:12:20.880Z,47.98
2023-03-29T00:14:48.236Z,48.17
2023-03-29T00:17:15.702Z,47.97
2023-03-29T00:19:46.875Z,47.85
2023-03-29T00:22:14.311Z,48.24
2023-03-29T00:24:41.509Z,48.12
2023-03-29T00:27:08.669Z,47.71
2023-03-29T00:29:35.875Z,48.47
2023-03-29T00:32:03.006Z,48.94
2023-03-29T00:34:32.845Z,49.56
2023-03-29T00:36:59.998Z,50.59
2023-03-29T00:39:28.621Z,51.86
2023-03-29T00:41:56.081Z,52.49
2023-03-29T00:44:58.987Z,53.65
2023-03-29T00:47:55.900Z,54.06
2023-03-29T00:50:31.214Z,54.40
2023-03-29T00:53:03.861Z,54.61
2023-03-29T00:55:43.193Z,55.59
2023-03-29T00:58:14.606Z,55.75
2023-03-29T01:00:52.449Z,57.12
2023-03-29T01:03:27.721Z,56.96
2023-03-29T01:06:00.972Z,57.48
2023-03-29T01:08:35.185Z,57.73
2023-03-29T01:11:31.224Z,58.46
2023-03-29T01:14:04.096Z,58.32
2023-03-29T01:16:35.355Z,58.04
2023-03-29T01:19:02.868Z,58.65
2023-03-29T01:21:51.920Z,58.92
2023-03-29T01:24:34.243Z,59.26
2023-03-29T01:27:11.656Z,59.25
2023-03-29T01:29:50.540Z,59.98
2023-03-29T01:32:23.654Z,59.73
2023-03-29T01:35:12.007Z,59.51
2023-03-29T01:37:58.717Z,59.63
2023-03-29T01:40:28.453Z,58.82
2023-03-29T01:43:28.246Z,59.44
2023-03-29T01:46:05.461Z,58.18
2023-03-29T01:48:57.024Z,57.03
2023-03-29T01:51:42.178Z,56.68
2023-03-29T01:54:16.593Z,57.11
2023-03-29T01:56:45.859Z,56.07
2023-03-29T01:59:22.918Z,55.66
2023-03-29T02:01:54.714Z,55.60
2023-03-29T02:04:30.254Z,54.88
2023-03-29T02:06:59.752Z,53.37
2023-03-29T02:09:29.753Z,53.43
2023-03-29T02:12:01.261Z,53.68
2023-03-29T02:14:30.791Z,52.63
2023-03-29T02:17:15.374Z,52.02
2023-03-29T02:19:43.748Z,52.31
2023-03-29T02:22:11.179Z,52.36
2023-03-29T02:24:41.101Z,50.92
2023-03-29T02:27:08.718Z,50.06
2023-03-29T02:29:36.034Z,48.29
2023-03-29T02:32:21.631Z,49.23
2023-03-29T02:34:59.066Z,48.46
2023-03-29T02:37:30.619Z,48.28
2023-03-29T02:39:59.321Z,48.34
2023-03-29T02:42:28.181Z,47.72
2023-03-29T02:44:59.152Z,48.08
2023-03-29T02:47:33.256Z,47.97
2023-03-29T02:50:00.794Z,47.92
2023-03-29T02:52:34.456Z,46.10
2023-03-29T02:55:06.008Z,45.84
2023-03-29T02:57:33.511Z,45.43
2023-03-29T03:00:01.397Z,46.17
2023-03-29T03:02:30.493Z,45.41
2023-03-29T03:04:58.035Z,45.02
2023-03-29T03:07:25.546Z,44.80
2023-03-29T03:09:53.251Z,44.49
2023-03-29T03:12:20.746Z,44.89
2023-03-29T03:14:48.596Z,43.91
2023-03-29T03:17:19.268Z,43.92
2023-03-29T03:19:47.738Z,44.08
2023-03-29T03:22:15.550Z,43.42
2023-03-29T03:24:43.485Z,43.11
2023-03-29T03:27:12.075Z,43.21
2023-03-29T03:29:39.767Z,42.40
2023-03-29T03:32:25.694Z,43.47
2023-03-29T03:35:12.436Z,43.04
2023-03-29T03:37:41.208Z,43.30
2023-03-29T03:40:09.690Z,43.55
2023-03-29T03:42:37.863Z,42.71
2023-03-29T03:45:06.210Z,41.72
2023-03-29T03:48:10.175Z,41.43
2023-03-29T03:50:57.292Z,41.88
2023-03-29T03:53:28.120Z,41.74
2023-03-29T03:56:14.206Z,41.68
2023-03-29T03:59:07.930Z,41.20
2023-03-29T04:01:48.043Z,41.80
2023-03-29T04:04:20.333Z,41.62
2023-03-29T04:07:13.337Z,41.88
2023-03-29T04:09:57.298Z,41.82
2023-03-29T04:12:47.507Z,41.24
2023-03-29T04:15:18.306Z,41.26
2023-03-29T04:17:52.135Z,41.32
2023-03-29T04:20:26.642Z,40.52
2023-03-29T04:22:54.528Z,41.01
2023-03-29T04:25:22.633Z,40.75
2023-03-29T04:28:12.347Z,40.73
2023-03-29T04:30:49.310Z,40.78
2023-03-29T04:33:41.685Z,40.75
2023-03-29T04:36:09.910Z,40.46
2023-03-29T04:38:38.165Z,41.04
2023-03-29T04:41:05.807Z,41.41
2023-03-29T04:44:08.715Z,41.63
2023-03-29T04:46:36.142Z,41.04
2023-03-29T04:49:20.468Z,40.63
2023-03-29T04:51:51.209Z,40.05
2023-03-29T04:54:21.922Z,39.90
2023-03-29T04:57:14.950Z,40.59
2023-03-29T04:59:54.890Z,39.97
2023-03-29T05:02:58.550Z,39.92
2023-03-29T05:05:28.090Z,40.02
2023-03-29T05:07:57.037Z,40.39
2023-03-29T05:10:32.063Z,39.78
2023-03-29T05:12:59.673Z,39.55
2023-03-29T05:15:27.772Z,39.46
2023-03-29T05:17:55.958Z,39.54
2023-03-29T05:20:23.549Z,39.41
2023-03-29T05:22:50.885Z,39.87
2023-03-29T05:25:37.931Z,39.57
2023-03-29T05:28:05.137Z,39.43
2023-03-29T05:30:32.625Z,39.33
2023-03-29T05:33:08.303Z,39.26
2023-03-29T05:35:36.291Z,39.35
2023-03-29T05:38:06.992Z,38.93
2023-03-29T05:40:36.075Z,38.92
2023-03-29T05:43:23.751Z,38.75
2023-03-29T05:45:56.770Z,38.85
2023-03-29T05:48:25.189Z,38.84
2023-03-29T05:50:54.856Z,39.09
2023-03-29T05:53:23.959Z,38.67
2023-03-29T05:55:51.882Z,39.07
2023-03-29T05:58:21.876Z,38.18
2023-03-29T06:00:50.474Z,38.39
2023-03-29T06:03:37.125Z,38.24
2023-03-29T06:06:05.459Z,38.53
2023-03-29T06:08:35.428Z,38.84
2023-03-29T06:11:13.788Z,37.92
2023-03-29T06:14:07.044Z,37.94
2023-03-29T06:16:39.636Z,38.17
2023-03-29T06:19:08.991Z,38.49
2023-03-29T06:21:37.440Z,38.52
2023-03-29T06:24:07.147Z,38.49
2023-03-29T06:26:39.718Z,38.86
2023-03-29T06:29:07.088Z,38.15
2023-03-29T06:31:36.524Z,38.12
2023-03-29T06:34:05.190Z,38.30
2023-03-29T06:36:55.318Z,38.13
2023-03-29T06:39:22.791Z,38.03
2023-03-29T06:41:53.303Z,37.69
2023-03-29T06:44:33.013Z,38.11
2023-03-29T06:47:07.751Z,37.68
2023-03-29T06:49:35.129Z,37.37
2023-03-29T06:52:11.569Z,37.86
2023-03-29T06:54:39.205Z,38.20
2023-03-29T06:57:06.337Z,37.95
2023-03-29T06:59:35.144Z,37.29
2023-03-29T07:02:23.012Z,37.33
2023-03-29T07:04:56.588Z,37.41
2023-03-29T07:07:53.864Z,37.28
2023-03-29T07:10:47.767Z,37.36
2023-03-29T07:13:44.523Z,37.86
2023-03-29T07:16:15.096Z,37.21
2023-03-29T07:18:49.509Z,37.08
2023-03-29T07:21:31.203Z,37.02
2023-03-29T07:23:58.685Z,36.33
2023-03-29T07:26:28.890Z,36.33
2023-03-29T07:28:59.126Z,36.77
2023-03-29T07:31:26.370Z,37.14
2023-03-29T07:34:12.380Z,37.31
2023-03-29T07:36:40.065Z,36.34
2023-03-29T07:39:09.430Z,36.38
2023-03-29T07:41:39.030Z,36.03
2023-03-29T07:44:12.299Z,36.10
2023-03-29T07:46:39.548Z,35.92
2023-03-29T07:49:08.463Z,36.48
2023-03-29T07:51:37.020Z,35.67
2023-03-29T07:54:08.937Z,34.91
2023-03-29T07:56:42.688Z,35.06
2023-03-29T07:59:18.376Z,35.35
2023-03-29T08:01:51.045Z,35.13
2023-03-29T08:04:25.754Z,34.64
2023-03-29T08:07:10.881Z,34.44
2023-03-29T08:09:58.331Z,34.02
2023-03-29T08:12:53.946Z,34.62
2023-03-29T08:15:28.418Z,34.29
2023-03-29T08:17:56.115Z,34.31
2023-03-29T08:20:23.456Z,34.68
2023-03-29T08:22:55.330Z,35.05
2023-03-29T08:25:42.728Z,34.95
2023-03-29T08:28:10.597Z,33.87
2023-03-29T08:30:45.158Z,34.48
2023-03-29T08:33:12.547Z,31.97
2023-03-29T08:35:39.928Z,33.72
2023-03-29T08:38:17.057Z,35.08
2023-03-29T08:40:56.667Z,32.93
2023-03-29T08:43:31.844Z,32.13
2023-03-29T08:46:39.939Z,32.80
2023-03-29T08:49:35.607Z,33.07
2023-03-29T08:52:14.569Z,35.63
2023-03-29T08:54:48.985Z,32.18
2023-03-29T08:57:37.068Z,32.76
2023-03-29T09:00:21.461Z,31.85
2023-03-29T09:02:54.159Z,32.22
2023-03-29T09:05:32.315Z,31.39
2023-03-29T09:08:19.220Z,35.94
2023-03-29T09:11:20.702Z,32.30
2023-03-29T09:13:57.276Z,33.04
2023-03-29T09:16:45.361Z,30.73
2023-03-29T09:19:27.464Z,30.64
2023-03-29T09:22:20.115Z,29.94
2023-03-29T09:25:24.269Z,29.66
2023-03-29T09:28:03.929Z,36.04
2023-03-29T09:30:53.780Z,34.62
2023-03-29T09:33:33.030Z,36.51
2023-03-29T09:36:31.172Z,31.36
2023-03-29T09:38:59.392Z,29.04
2023-03-29T09:41:44.200Z,30.77
2023-03-29T09:44:30.103Z,28.36
2023-03-29T09:47:17.762Z,27.86
2023-03-29T09:49:50.052Z,27.90
2023-03-29T09:52:21.355Z,31.48
2023-03-29T09:55:04.174Z,27.81
2023-03-29T09:57:52.614Z,28.60
2023-03-29T10:00:23.229Z,29.48
2023-03-29T10:02:56.054Z,29.59
2023-03-29T10:05:36.979Z,30.55
2023-03-29T10:08:19.945Z,29.32
2023-03-29T10:10:50.424Z,26.78
2023-03-29T10:13:28.831Z,25.26
2023-03-29T10:16:08.840Z,26.65
2023-03-29T10:18:43.938Z,25.38
2023-03-29T10:21:22.549Z,25.60
2023-03-29T10:23:57.130Z,27.21
2023-03-29T10:26:33.290Z,26.44
2023-03-29T10:29:08.176Z,27.80
2023-03-29T10:31:41.980Z,25.90
2023-03-29T10:34:18.893Z,30.29
2023-03-29T10:37:00.929Z,26.84
2023-03-29T10:39:33.285Z,28.80
2023-03-29T10:42:04.804Z,27.69
2023-03-29T10:44:37.612Z,26.74
2023-03-29T10:47:18.265Z,27.30
2023-03-29T10:49:51.059Z,26.85
2023-03-29T10:52:19.163Z,26.28
2023-03-29T10:54:47.940Z,26.88
2023-03-29T10:57:46.082Z,27.58
2023-03-29T11:00:33.688Z,24.10
2023-03-29T11:03:35.639Z,25.76
2023-03-29T11:06:23.704Z,27.29
2023-03-29T11:08:59.992Z,30.08
2023-03-29T11:12:14.869Z,23.76
2023-03-29T11:14:52.862Z,22.40
2023-03-29T11:17:34.270Z,22.62
2023-03-29T11:20:04.442Z,23.53
2023-03-29T11:22:47.914Z,22.25
2023-03-29T11:25:27.183Z,22.57
2023-03-29T11:28:32.483Z,23.95
2023-03-29T11:31:45.292Z,24.97
2023-03-29T11:34:25.149Z,27.56
2023-03-29T11:37:21.387Z,23.96
2023-03-29T11:40:07.412Z,23.20
2023-03-29T11:42:40.848Z,23.62
2023-03-29T11:45:16.576Z,24.32
2023-03-29T11:47:46.512Z,22.17
2023-03-29T11:50:29.595Z,21.38
2023-03-29T11:53:10.381Z,23.37
2023-03-29T11:55:40.388Z,22.61
2023-03-29T11:58:29.471Z,22.22
2023-03-29T12:01:20.328Z,19.74
2023-03-29T12:03:56.370Z,20.35
2023-03-29T12:06:32.259Z,20.35
2023-03-29T12:09:14.856Z,19.97
2023-03-29T12:12:14.888Z,19.80
2023-03-29T12:15:00.653Z,20.03
2023-03-29T12:17:33.409Z,20.31
2023-03-29T12:20:18.639Z,20.43
2023-03-29T12:22:51.347Z,20.87
2023-03-29T12:25:28.682Z,22.70
2023-03-29T12:28:02.155Z,22.16
2023-03-29T12:30:43.924Z,20.93
2023-03-29T12:33:22.962Z,20.73
2023-03-29T12:37:01.382Z,20.86
2023-03-29T12:39:55.394Z,21.23
2023-03-29T12:43:05.606Z,21.19
2023-03-29T12:46:06.221Z,20.23
2023-03-29T12:48:35.763Z,20.35
2023-03-29T12:51:13.829Z,19.94
2023-03-29T12:53:46.337Z,20.63
2023-03-29T12:56:36.711Z,20.40
2023-03-29T12:59:22.327Z,20.53
2023-03-29T13:02:04.574Z,20.28
2023-03-29T13:04:51.455Z,20.33
2023-03-29T13:07:26.700Z,20.55
2023-03-29T13:10:01.814Z,20.47
2023-03-29T13:12:37.739Z,20.12
2023-03-29T13:15:08.271Z,20.16
2023-03-29T13:18:02.000Z,20.01
2023-03-29T13:20:57.233Z,20.45
2023-03-29T13:24:03.441Z,20.86
2023-03-29T13:26:51.863Z,20.86
2023-03-29T13:29:49.163Z,20.49
2023-03-29T13:32:47.482Z,21.27
2023-03-29T13:35:28.242Z,20.94
2023-03-29T13:38:33.332Z,20.44
2023-03-29T13:41:10.438Z,21.29
2023-03-29T13:43:53.720Z,22.06
2023-03-29T13:46:37.745Z,22.75
2023-03-29T13:49:16.538Z,22.28
2023-03-29T13:51:57.263Z,22.01
2023-03-29T13:54:35.452Z,22.29
2023-03-29T13:57:21.892Z,22.56
2023-03-29T14:00:19.525Z,22.43
2023-03-29T14:02:58.313Z,22.36
2023-03-29T14:05:34.808Z,22.87
2023-03-29T14:08:16.620Z,23.21
2023-03-29T14:10:45.740Z,23.49
2023-03-29T14:13:24.861Z,23.74
2023-03-29T14:15:59.775Z,23.71
2023-03-29T14:18:38.132Z,23.28
2023-03-29T14:21:19.456Z,22.72
2023-03-29T14:23:54.232Z,22.89
2023-03-29T14:26:24.618Z,22.98
2023-03-29T14:29:02.590Z,22.54
2023-03-29T14:31:40.322Z,23.48
2023-03-29T14:34:16.292Z,22.39
2023-03-29T14:36:49.565Z,22.63
2023-03-29T14:39:19.592Z,23.12
2023-03-29T14:41:52.524Z,23.33
2023-03-29T14:44:25.994Z,22.37
2023-03-29T14:46:54.084Z,23.20
2023-03-29T14:49:23.501Z,22.30
2023-03-29T14:51:52.096Z,22.65
2023-03-29T14:54:34.627Z,22.95
2023-03-29T14:57:08.619Z,23.19
2023-03-29T14:59:42.532Z,23.36
2023-03-29T15:02:30.485Z,23.22
2023-03-29T15:05:25.701Z,23.48
2023-03-29T15:07:57.610Z,23.41
2023-03-29T15:10:27.583Z,23.43
2023-03-29T15:12:56.368Z,23.20
2023-03-29T15:15:26.376Z,23.28
2023-03-29T15:17:54.141Z,23.19
2023-03-29T15:20:35.104Z,23.61
2023-03-29T15:23:18.165Z,23.54
2023-03-29T15:25:59.083Z,23.28
2023-03-29T15:28:33.078Z,23.02
2023-03-29T15:31:18.316Z,23.45
2023-03-29T15:33:47.261Z,24.56
2023-03-29T15:36:20.532Z,23.35
2023-03-29T15:38:50.293Z,23.52
2023-03-29T15:41:17.732Z,23.35
2023-03-29T15:43:45.179Z,23.38
2023-03-29T15:46:15.458Z,23.28
2023-03-29T15:48:54.788Z,23.65
2023-03-29T15:51:22.294Z,23.82
2023-03-29T15:53:51.982Z,24.61
2023-03-29T15:56:21.496Z,24.42
2023-03-29T15:58:49.512Z,25.45
2023-03-29T16:01:34.292Z,25.74
2023-03-29T16:04:12.655Z,25.95
2023-03-29T16:06:40.976Z,26.62
2023-03-29T16:09:09.115Z,26.59
2023-03-29T16:11:36.427Z,26.66
2023-03-29T16:14:07.081Z,26.78
2023-03-29T16:16:35.348Z,27.23
2023-03-29T16:19:02.603Z,28.31
2023-03-29T16:21:29.951Z,25.95
2023-03-29T16:23:59.540Z,25.78
2023-03-29T16:26:32.032Z,25.94
2023-03-29T16:29:01.843Z,25.59
2023-03-29T16:31:31.451Z,25.68
2023-03-29T16:33:58.755Z,25.97
2023-03-29T16:36:26.538Z,26.02
2023-03-29T16:38:53.878Z,26.81
2023-03-29T16:41:21.887Z,27.39
2023-03-29T16:43:49.120Z,28.82
2023-03-29T16:46:16.369Z,29.61
2023-03-29T16:48:43.686Z,30.22
2023-03-29T16:51:11.190Z,30.32
2023-03-29T16:53:38.542Z,30.52
2023-03-29T16:56:06.272Z,30.66
2023-03-29T16:58:33.490Z,30.77
2023-03-29T17:01:10.002Z,30.88
2023-03-29T17:03:37.733Z,31.43
2023-03-29T17:06:06.173Z,31.10
2023-03-29T17:08:33.650Z,31.52
2023-03-29T17:11:01.697Z,31.30
2023-03-29T17:13:30.023Z,30.94
2023-03-29T17:15:58.038Z,31.42
2023-03-29T17:18:26.798Z,31.30
2023-03-29T17:20:57.528Z,33.52
2023-03-29T17:23:25.022Z,32.62
2023-03-29T17:25:54.889Z,32.76
2023-03-29T17:28:22.898Z,32.95
2023-03-29T17:30:50.333Z,33.04
2023-03-29T17:33:19.087Z,32.03
2023-03-29T17:35:48.827Z,32.51
2023-03-29T17:38:16.180Z,32.12
2023-03-29T17:40:43.461Z,32.51
2023-03-29T17:43:10.644Z,33.21
2023-03-29T17:45:37.817Z,33.64
2023-03-29T17:48:06.379Z,33.74
2023-03-29T17:50:34.614Z,34.39
2023-03-29T17:53:01.708Z,34.39
2023-03-29T17:55:28.862Z,34.05
2023-03-29T17:57:56.638Z,34.72
2023-03-29T18:00:23.989Z,34.87
2023-03-29T18:02:51.700Z,35.19
2023-03-29T18:05:18.979Z,35.20
2023-03-29T18:07:46.752Z,35.47
2023-03-29T18:10:13.944Z,35.10
2023-03-29T18:12:41.456Z,35.72
2023-03-29T18:15:09.427Z,35.63
2023-03-29T18:17:36.951Z,35.99
2023-03-29T18:20:11.977Z,36.16
2023-03-29T18:22:42.105Z,35.97
2023-03-29T18:25:10.419Z,35.78
2023-03-29T18:27:39.845Z,35.45
2023-03-29T18:30:08.888Z,35.34
2023-03-29T18:32:37.069Z,35.42
2023-03-29T18:35:05.548Z,35.24
2023-03-29T18:37:33.157Z,35.63
2023-03-29T18:40:00.602Z,35.35
2023-03-29T18:42:28.076Z,35.08
2023-03-29T18:44:55.881Z,35.77
2023-03-29T18:47:22.940Z,35.83
2023-03-29T18:49:53.465Z,35.41
2023-03-29T18:52:20.615Z,35.26
2023-03-29T18:54:48.100Z,35.24
2023-03-29T18:57:15.408Z,35.39
2023-03-29T18:59:42.784Z,35.05
2023-03-29T19:02:10.366Z,35.30
2023-03-29T19:04:37.476Z,35.33
2023-03-29T19:09:50.234Z,35.12
2023-03-29T19:12:17.357Z,35.26
2023-03-29T19:14:44.971Z,34.84
2023-03-29T19:17:12.116Z,34.97
2023-03-29T19:19:39.263Z,35.21
2023-03-29T19:22:06.820Z,36.12
2023-03-29T19:24:33.967Z,36.66
2023-03-29T19:27:02.090Z,36.15
2023-03-29T19:29:29.316Z,36.95
2023-03-29T19:31:57.495Z,36.58
2023-03-29T19:34:24.915Z,36.61
2023-03-29T19:36:53.725Z,37.10
2023-03-29T19:39:22.438Z,36.77
2023-03-29T19:41:49.615Z,37.15
2023-03-29T19:44:16.913Z,37.64
2023-03-29T19:46:44.314Z,38.40
2023-03-29T19:49:13.930Z,38.32
2023-03-29T19:51:42.492Z,38.72
2023-03-29T19:54:13.172Z,40.17
2023-03-29T19:56:41.010Z,40.64
2023-03-29T19:59:11.314Z,41.10
2023-03-29T20:01:39.680Z,40.91
2023-03-29T20:04:07.089Z,40.61
2023-03-29T20:06:34.631Z,40.73
2023-03-29T20:09:02.318Z,41.30
2023-03-29T20:11:29.687Z,41.20
2023-03-29T20:13:57.684Z,40.92
2023-03-29T20:16:26.344Z,41.67
2023-03-29T20:18:54.312Z,41.76
2023-03-29T20:21:21.441Z,42.34
2023-03-29T20:23:48.599Z,42.35
2023-03-29T20:26:15.670Z,42.76
2023-03-29T20:28:42.977Z,42.34
2023-03-29T20:31:13.754Z,42.44
2023-03-29T20:33:41.845Z,42.66
2023-03-29T20:36:16.691Z,42.80
2023-03-29T20:38:45.455Z,42.43
2023-03-29T20:41:14.302Z,42.62
2023-03-29T20:43:47.185Z,43.00
2023-03-29T20:46:24.247Z,43.43
2023-03-29T20:48:54.776Z,43.42
2023-03-29T20:51:28.433Z,43.68
2023-03-29T20:54:02.841Z,44.69
2023-03-29T20:56:33.825Z,46.06
2023-03-29T20:59:01.440Z,45.77
2023-03-29T21:01:30.556Z,45.86
2023-03-29T21:03:57.990Z,45.83
2023-03-29T21:06:25.304Z,45.61
2023-03-29T21:08:52.942Z,45.77
2023-03-29T21:11:25.182Z,45.38
2023-03-29T21:14:03.022Z,46.03
2023-03-29T21:16:32.332Z,45.99
2023-03-29T21:19:01.930Z,47.43
2023-03-29T21:21:36.329Z,46.87
2023-03-29T21:24:06.081Z,47.82
2023-03-29T21:26:33.669Z,49.06
2023-03-29T21:29:01.581Z,48.79
2023-03-29T21:31:28.878Z,49.62
2023-03-29T21:34:01.363Z,48.99
2023-03-29T21:36:28.682Z,49.19
2023-03-29T21:38:56.268Z,49.14
2023-03-29T21:41:23.559Z,49.29
2023-03-29T21:43:58.241Z,49.76
2023-03-29T21:46:30.859Z,50.04
2023-03-29T21:48:58.496Z,49.74
2023-03-29T21:51:29.127Z,49.60
2023-03-29T21:53:56.790Z,49.94
2023-03-29T21:56:23.874Z,50.14
2023-03-29T21:58:51.763Z,50.09
2023-03-29T22:01:18.857Z,49.48
2023-03-29T22:03:46.996Z,49.43
2023-03-29T22:06:15.700Z,49.54
2023-03-29T22:08:42.990Z,49.78
2023-03-29T22:11:20.471Z,50.24
2023-03-29T22:13:52.366Z,50.63
2023-03-29T22:16:26.307Z,50.74
2023-03-29T22:18:56.202Z,51.29
2023-03-29T22:21:27.684Z,50.44
2023-03-29T22:24:01.666Z,50.97
2023-03-29T22:26:34.401Z,51.43
2023-03-29T22:29:04.813Z,52.43
2023-03-29T22:31:32.478Z,51.81
2023-03-29T22:34:01.218Z,51.27
2023-03-29T22:36:37.446Z,51.27
2023-03-29T22:39:07.729Z,51.79
2023-03-29T22:41:34.796Z,51.62
2023-03-29T22:44:02.404Z,51.88
2023-03-29T22:46:30.464Z,52.39
2023-03-29T22:48:58.281Z,53.01
2023-03-29T22:51:25.525Z,52.40
2023-03-29T22:53:54.475Z,52.79
2023-03-29T22:56:22.307Z,52.84
2023-03-29T22:58:50.056Z,54.74
2023-03-29T23:01:17.205Z,54.54
2023-03-29T23:03:44.941Z,54.43
2023-03-29T23:06:12.214Z,53.95
2023-03-29T23:08:39.846Z,53.15
2023-03-29T23:11:07.996Z,53.20
2023-03-29T23:13:35.430Z,53.03
2023-03-29T23:16:03.893Z,55.08
2023-03-29T23:18:35.146Z,54.19
2023-03-29T23:21:02.839Z,53.61
2023-03-29T23:23:30.153Z,53.57
2023-03-29T23:25:57.715Z,53.54
2023-03-29T23:28:27.690Z,53.86
2023-03-29T23:31:18.608Z,54.24
2023-03-29T23:33:46.597Z,54.12
2023-03-29T23:36:15.967Z,54.11
2023-03-29T23:38:45.695Z,54.57
2023-03-29T23:41:13.759Z,54.03
2023-03-29T23:43:44.027Z,54.34
2023-03-29T23:46:14.590Z,54.93
2023-03-29T23:48:49.542Z,54.68
2023-03-29T23:51:19.375Z,54.92
2023-03-29T23:53:50.918Z,54.85
2023-03-29T23:56:18.344Z,54.96
2023-03-29T23:58:45.609Z,55.28
